Terminal Aerodrome Forecast
Issued by NWS

Home | Current Version | Previous Version | Text Only | Print | Product List | Glossary On
Versions: 1 2 3 4 5 6 7 8 9 10 11 12 13 14 15 16 17 18 19 20 21 22
000
FTUS41 KGYX 021409 AAA
TAFRKD
TAF AMD
KRKD 021409Z 0214/0312 05011G17KT P6SM OVC012
     FM021500 05011G16KT P6SM OVC025
     FM021700 04009KT P6SM BKN050 OVC100
      AMD LTD TO CLD VIS AND WIND=

USA.gov is the U.S. government's official web portal to all federal, state and local government web resources and services.